Jack C. Davis Observatory, Carson City, Nevada Weather observations

Data are for observation ending at time listed.
 Day   Time    Ave.   Ave.  Ave.  Vector   Max.   Stn.    Total    Solar   Ave.  
  of    of     Air    Rel.  Wind   Wind    Wind   Baro.  Precip.   Rad.    Soil  
Year   Day     Temp.  Hum.  Speed  Dir.    Gust   Pres.                    Temp. 
2018   (PST)    F      %     mph   deg.    mph     mb.     in.     W/m2     F   
------------------------------------------------------------------------------
 109   19:30   44.1    52    7.6   308     12.1   847.2    0.00       0    999.0
 109   19:40   44.2    53    7.7   303     13.0   847.2    0.00       0    999.0
 109   19:50   44.1    53    4.9   323     12.6   847.5    0.00       0    999.0
 109   20:00   44.7    52    3.6   349      9.7   847.6    0.00       0    999.0
 109   20:10   45.0    52    3.6   341      8.9   847.8    0.00       0    999.0
 109   20:20   44.2    54    5.7   318      9.4   847.8    0.00       0    999.0
 109   20:30   43.3    56    4.4   324     10.0   848.0    0.00       0    999.0
 109   20:40   43.8    55    4.3   318      9.2   848.0    0.00       0    999.0
 109   20:50   42.4    58    3.2   322      5.3   848.0    0.00       0    999.0
 109   21:00   42.3    59    1.2   353      3.9   848.3    0.00       0    999.0
 109   21:10   42.5    60    1.7   320      4.3   848.5    0.00       0    999.0
 109   21:20   43.1    60    2.8   314      6.1   848.5    0.00       0    999.0
 109   21:30   43.1    60    1.6   302      4.4   848.6    0.00       0    999.0
 109   21:40   43.2    60    3.1   303      5.3   848.5    0.00       0    999.0
 109   21:50   42.7    61    2.2   301      4.6   848.6    0.00       0    999.0
 109   22:00   41.0    65    3.3   322      6.1   848.6    0.00       0    999.0
 109   22:10   42.5    62    2.7   332      7.5   848.5    0.00       0    999.0
 109   22:20   42.9    60    0.7    16      4.4   848.6    0.00       0    999.0
 109   22:30   42.4    61    1.0    72      3.9   848.7    0.00       0    999.0
 109   22:40   42.0    62    2.0   256      4.8   848.8    0.00       0    999.0
 109   22:50   41.6    63    5.1   271      6.7   848.8    0.00       0    999.0
 109   23:00   40.3    66    4.6   264      5.9   848.9    0.00       0    999.0
 109   23:10   40.0    67    3.7   250      5.1   848.9    0.00       0    999.0
 109   23:20   41.2    64    1.8   212      3.7   849.0    0.00       0    999.0
 109   23:30   42.3    62    1.6   286      4.5   849.1    0.00       0    999.0
 109   23:40   41.3    64    2.0   279      4.2   849.3    0.00       0    999.0
 109   23:50   40.4    67    2.5   307      4.4   849.4    0.00       0    999.0
 110    0:00   38.1    72    4.1   268      5.8   849.5    0.00       0    999.0
 110    0:10   38.3    72    4.0   272      6.2   849.5    0.00       0    999.0
 110    0:20   38.0    72    3.7   270      5.6   849.6    0.00       0    999.0
 110    0:30   37.9    72    3.5   287      5.3   849.6    0.00       0    999.0
 110    0:40   38.1    72    3.8   280      6.6   849.7    0.00       0    999.0
 110    0:50   37.6    74    5.5   270      6.5   849.7    0.00       0    999.0
 110    1:00   37.2    75    5.5   275      7.5   849.7    0.00       0    999.0
 110    1:10   37.0    75    5.5   270      7.2   849.7    0.00       0    999.0
 110    1:20   37.3    74    3.6   268      6.6   849.7    0.00       0    999.0
 110    1:30   37.5    74    5.2   270      7.4   849.8    0.00       0    999.0
 110    1:40   37.5    73    3.8   280      5.8   849.8    0.00       0    999.0
 110    1:50   38.4    71    2.7   299      3.5   849.7    0.00       0    999.0
 110    2:00   38.1    72    3.4   300      4.2   849.7    0.00       0    999.0
 110    2:10   36.8    75    3.2   280      5.6   849.8    0.00       0    999.0
 110    2:20   36.1    76    1.7   271      3.5   849.8    0.00       0    999.0
 110    2:30   36.3    76    3.5   281      4.5   849.9    0.00       0    999.0
 110    2:40   36.6    75    2.9   273      5.0   850.0    0.00       0    999.0
 110    2:50   36.4    75    0.8   301      2.4   850.1    0.00       0    999.0
 110    3:00   36.1    76    2.6   298      4.3   850.1    0.00       0    999.0
 110    3:10   37.1    73    3.3   308      4.8   850.1    0.00       0    999.0
 110    3:20   36.5    75    3.8   319      5.0   850.1    0.00       0    999.0
 110    3:30   36.0    76    1.7   342      4.6   850.2    0.00       0    999.0
 110    3:40   35.5    77    0.7    71      3.1   850.2    0.00       0    999.0
 110    3:50   34.8    78    1.4   292      3.4   850.3    0.00       0    999.0
 110    4:00   35.5    78    0.7   288      3.0   850.4    0.00       0    999.0
 110    4:10   35.6    77    0.8   237      3.7   850.5    0.00       0    999.0
 110    4:20   35.6    77    3.6   285      5.0   850.5    0.00       0    999.0
 110    4:30   36.0    76    3.6   318      4.7   850.6    0.00       0    999.0
 110    4:40   35.0    78    0.7    97      4.0   850.7    0.00       0    999.0
 110    4:50   34.5    79    0.0     0      0.0   850.8    0.00       0    999.0
 110    5:00   34.1    80    0.0     0      0.0   850.9    0.00       1    999.0
 110    5:10   33.6    81    0.6    31      3.3   850.9    0.00       1    999.0
 110    5:20   32.4    83    1.9   296      4.2   850.9    0.00       4    999.0
 110    5:30   32.1    84    3.6   297      5.0   851.0    0.00      13    999.0
 110    5:40   33.5    82    2.8   313      4.2   851.1    0.00      30    999.0
 110    5:50   35.0    79    2.1   300      2.9   851.2    0.00      55    999.0
 110    6:00   36.9    74    1.1   348      3.0   851.3    0.00      90    999.0
 110    6:10   38.1    71    0.9   305      2.9   851.5    0.00     124    999.0
 110    6:20   39.8    68    0.6    92      3.9   851.7    0.00     154    999.0
 110    6:30   39.7    67    0.9    43      2.3   851.8    0.00     186    999.0
 110    6:40   39.1    68    3.1    86      5.0   852.0    0.00     219    999.0
 110    6:50   38.3    69    2.1   104      5.0   852.2    0.00     253    999.0
 110    7:00   41.6    62    0.1   103      1.9   852.3    0.00     287    999.0
 110    7:10   44.2    58    0.4    34      3.3   852.2    0.00     322    999.0
 110    7:20   44.7    57    0.5    50      3.1   852.2    0.00     357    999.0
 110    7:30   46.5    54    0.4   118      2.2   852.2    0.00     392    999.0
 110    7:40   47.0    54    1.7   119      5.6   852.2    0.00     426    999.0
 110    7:50   46.5    55    1.5   101      3.9   852.2    0.00     460    999.0
 110    8:00   48.5    52    2.0   114      4.7   852.3    0.00     492    999.0
 110    8:10   47.4    54    3.0   105      5.3   852.4    0.00     524    999.0
 110    8:20   47.2    54    2.4    93      4.6   852.4    0.00     556    999.0
 110    8:30   49.9    49    2.3   139      4.8   852.5    0.00     587    999.0
 110    8:40   51.3    47    2.1   176      4.2   852.5    0.00     617    999.0
 110    8:50   52.3    46    1.7   182      4.5   852.4    0.00     647    999.0
 110    9:00   53.2    44    2.2   154      4.3   852.4    0.00     676    999.0
 110    9:10   52.4    45    4.0   123      7.5   852.3    0.00     702    999.0
 110    9:20   52.3    43    3.1   143      6.8   852.4    0.00     729    999.0
 110    9:30   54.4    39    1.5   128      5.6   852.3    0.00     755    999.0
 110    9:40   55.1    38    1.6   110      5.6   852.4    0.00     779    999.0
 110    9:50   55.3    37    2.8   142      6.2   852.3    0.00     802    999.0
 110   10:00   55.8    33    2.6   160      5.6   852.3    0.00     824    999.0
 110   10:10   56.3    32    2.3    78      6.8   852.3    0.00     844    999.0
 110   10:20   56.2    33    3.1   126      7.7   852.3    0.00     861    999.0
 110   10:30   56.6    31    3.8    56      6.6   852.2    0.00     878    999.0
 110   10:40   56.5    30    3.0    16      7.2   852.2    0.00     892    999.0
 110   10:50   57.7    30    2.7    56      8.3   852.1    0.00     906    999.0
 110   11:00   57.7    32    4.3   117      8.6   852.1    0.00     916    999.0
 110   11:10   58.4    31    2.9   123      8.3   852.1    0.00     926    999.0
 110   11:20   58.5    30    4.9   138      8.8   852.0    0.00     934    999.0
 110   11:30   60.1    28    2.9   142      7.0   851.9    0.00     939    999.0
 110   11:40   58.9    28    4.8   119     11.0   851.7    0.00     944    999.0
 110   11:50   58.4    28    3.5   124      9.7   851.6    0.00     950    999.0
 110   12:00   60.6    26    3.7   174      9.4   851.5    0.00     951    999.0
 110   12:10   60.5    24    3.5   134      8.2   851.4    0.00     951    999.0
 110   12:20   59.8    24    4.8    94      9.8   851.3    0.00     949    999.0
 110   12:30   60.5    22    3.0   139      8.1   851.3    0.00     947    999.0
 110   12:40   60.8    22    4.8   114      8.2   851.2    0.00     943    999.0
 110   12:50   61.6    20    3.2   102      6.7   851.2    0.00     939    999.0
 110   13:00   61.2    20    2.1    57      5.8   851.0    0.00     929    999.0
 110   13:10   62.4    20    2.5    90      6.4   850.9    0.00     920    999.0
 110   13:20   62.7    20    2.1   157      5.2   850.9    0.00     907    999.0
 110   13:30   64.3    20    2.7   220      5.9   850.8    0.00     894    999.0
 110   13:40   63.8    20    4.2   226      8.6   850.7    0.00     879    999.0
 110   13:50   62.8    19    2.8   195      7.1   850.7    0.00     861    999.0
 110   14:00   62.8    20    5.1   100      8.8   850.6    0.00     841    999.0
 110   14:10   63.5    20    3.8   138      9.2   850.5    0.00     820    999.0
 110   14:20   64.5    20    2.9   135      5.6   850.4    0.00     799    999.0
 110   14:30   65.7    19    3.5   170     11.0   850.3    0.00     777    999.0
 110   14:40   65.0    15    4.5   307      9.0   850.2    0.00     755    999.0
 110   14:50   64.2    17    5.2   309     11.1   850.2    0.00     728    999.0
 110   15:00   65.1    18    4.5   327     11.2   850.1    0.00     699    999.0
 110   15:10   65.2    17    5.1   327     12.0   850.1    0.00     674    999.0
 110   15:20   65.1    18    4.6   333      9.5   850.0    0.00     646    999.0
 110   15:30   65.2    18    5.1   335     11.0   849.9    0.00     616    999.0
 110   15:40   65.7    18    3.8    13      8.5   850.0    0.00     586    999.0
 110   15:50   65.9    18    3.9    14      9.4   850.0    0.00     554    999.0
 110   16:00   66.1    18    2.7    19      7.8   850.1    0.00     522    999.0
 110   16:10   66.3    17    3.3   355      9.8   850.0    0.00     490    999.0
 110   16:20   66.1    16    2.2   352      8.0   850.0    0.00     457    999.0
 110   16:30   65.6    16    5.1   327      9.7   850.0    0.00     424    999.0
 110   16:40   65.5    15    4.6   318      9.3   850.1    0.00     389    999.0
 110   16:50   65.6    16    3.0   326      7.6   850.1    0.00     354    999.0
 110   17:00   64.9    17    5.0   307      8.1   850.1    0.00     320    999.0
 110   17:10   64.6    18    4.7   311      8.3   850.1    0.00     284    999.0
 110   17:20   64.0    17    5.7   308      8.5   850.1    0.00     250    999.0
 110   17:30   63.4    18    5.0   312      8.0   850.1    0.00     216    999.0
 110   17:40   62.8    18    5.1   302      7.4   850.1    0.00     180    999.0
 110   17:50   60.5    19    5.4   297      8.5   850.1    0.00      26    999.0
 110   18:00   59.3    18    5.0   298      7.7   850.1    0.00      18    999.0
 110   18:10   59.1    17    5.5   298      7.9   850.2    0.00      16    999.0
 110   18:20   59.0    16    5.4   301      8.3   850.1    0.00      13    999.0
 110   18:30   58.7    16    5.3   292      8.7   850.2    0.00      10    999.0
 110   18:40   58.4    16    5.6   287      8.3   850.2    0.00       6    999.0
 110   18:50   57.8    18    3.3   306      6.4   850.2    0.00       3    999.0
 110   19:00   54.7    22    3.8   324      6.2   850.2    0.00       1    999.0
 110   19:10   54.3    21    3.8   320      5.9   850.3    0.00       0    999.0
 110   19:20   54.0    22    3.7   315      5.6   850.4    0.00       0    999.0

Return to Yerington, Nevada graphs page.


Western Regional Climate Center,wrcc@dri.edu